createdAt,value
2018-02-08T00:00:24.411Z,26.50
2018-02-08T00:02:51.981Z,25.23
2018-02-08T00:05:19.581Z,29.10
2018-02-08T00:07:47.247Z,27.40
2018-02-08T00:10:14.920Z,27.93
2018-02-08T00:12:42.672Z,33.03
2018-02-08T00:15:10.239Z,31.47
2018-02-08T00:17:37.907Z,29.40
2018-02-08T00:20:05.504Z,30.57
2018-02-08T00:22:45.017Z,31.63
2018-02-08T00:25:12.618Z,26.23
2018-02-08T00:27:40.172Z,28.40
2018-02-08T00:30:07.752Z,27.77
2018-02-08T00:32:35.374Z,29.03
2018-02-08T00:35:02.963Z,29.97
2018-02-08T00:37:30.535Z,26.47
2018-02-08T00:39:58.169Z,24.53
2018-02-08T00:42:25.739Z,29.90
2018-02-08T00:44:53.326Z,30.57
2018-02-08T00:47:20.943Z,25.30
2018-02-08T00:49:48.520Z,26.40
2018-02-08T00:52:16.087Z,27.80
2018-02-08T00:54:43.686Z,27.47
2018-02-08T00:57:11.273Z,27.47
2018-02-08T00:59:38.843Z,29.08
2018-02-08T01:02:06.460Z,25.70
2018-02-08T01:04:34.042Z,30.93
2018-02-08T01:07:01.799Z,28.47
2018-02-08T01:09:29.444Z,27.90
2018-02-08T01:11:57.332Z,25.13
2018-02-08T01:14:25.003Z,21.17
2018-02-08T01:16:52.624Z,29.00
2018-02-08T01:19:20.194Z,25.10
2018-02-08T01:21:47.759Z,24.83
2018-02-08T01:24:15.393Z,25.23
2018-02-08T01:26:42.963Z,27.93
2018-02-08T01:29:10.518Z,30.77
2018-02-08T01:31:38.152Z,26.30
2018-02-08T01:34:05.729Z,25.37
2018-02-08T01:36:33.298Z,25.37
2018-02-08T01:39:00.905Z,33.50
2018-02-08T01:41:28.488Z,33.57
2018-02-08T01:43:56.112Z,31.50
2018-02-08T01:46:23.701Z,30.27
2018-02-08T01:48:51.281Z,30.87
2018-02-08T01:51:18.838Z,27.00
2018-02-08T01:53:46.446Z,26.00
2018-02-08T01:56:14.061Z,28.70
2018-02-08T01:58:41.671Z,25.97
2018-02-08T02:01:09.276Z,28.10
2018-02-08T02:03:37.009Z,26.37
2018-02-08T02:06:04.683Z,24.87
2018-02-08T02:08:32.282Z,23.37
2018-02-08T02:10:59.983Z,26.93
2018-02-08T02:13:27.543Z,25.83
2018-02-08T02:15:55.320Z,23.80
2018-02-08T02:18:22.902Z,20.40
2018-02-08T02:20:50.473Z,24.93
2018-02-08T02:23:18.070Z,24.37
2018-02-08T02:25:45.781Z,25.20
2018-02-08T02:28:13.437Z,23.87
2018-02-08T02:30:41.102Z,25.05
2018-02-08T02:33:08.688Z,23.00
2018-02-08T02:35:36.406Z,20.57
2018-02-08T02:38:04.068Z,23.23
2018-02-08T02:40:31.643Z,21.07
2018-02-08T02:42:59.482Z,19.40
2018-02-08T02:45:27.088Z,21.77
2018-02-08T02:47:54.736Z,23.50
2018-02-08T02:50:22.400Z,22.13
2018-02-08T02:52:50.008Z,24.93
2018-02-08T02:55:17.713Z,26.77
2018-02-08T02:57:45.590Z,23.47
2018-02-08T03:00:13.235Z,26.03
2018-02-08T03:02:40.910Z,25.30
2018-02-08T03:05:08.493Z,22.57
2018-02-08T03:07:36.117Z,24.93
2018-02-08T03:10:03.679Z,25.07
2018-02-08T03:12:31.301Z,24.50
2018-02-08T03:14:58.917Z,24.00
2018-02-08T03:17:26.490Z,24.07
2018-02-08T03:19:54.059Z,26.00
2018-02-08T03:22:21.790Z,24.80
2018-02-08T03:24:49.354Z,23.43
2018-02-08T03:27:16.924Z,24.00
2018-02-08T03:29:44.601Z,21.30
2018-02-08T03:32:12.306Z,24.10
2018-02-08T03:34:39.869Z,26.20
2018-02-08T03:37:07.485Z,23.90
2018-02-08T03:39:35.051Z,27.07
2018-02-08T03:42:02.628Z,26.43
2018-02-08T03:44:30.237Z,27.67
2018-02-08T03:46:57.812Z,26.50
2018-02-08T03:49:25.416Z,28.10
2018-02-08T03:51:53.068Z,24.70
2018-02-08T03:54:20.632Z,27.30
2018-02-08T03:56:48.254Z,27.27
2018-02-08T03:59:15.851Z,27.37
2018-02-08T04:01:43.425Z,28.80
2018-02-08T04:04:11.025Z,28.40
2018-02-08T04:06:38.649Z,24.90
2018-02-08T04:09:06.227Z,26.57
2018-02-08T04:11:33.801Z,25.40
2018-02-08T04:14:01.465Z,29.63
2018-02-08T04:16:30.156Z,28.57
2018-02-08T04:18:57.832Z,23.57
2018-02-08T04:21:25.444Z,29.80
2018-02-08T04:23:53.142Z,35.45
2018-02-08T04:26:20.722Z,31.30
2018-02-08T04:28:48.326Z,28.90
2018-02-08T04:31:15.879Z,30.70
2018-02-08T04:33:43.435Z,29.97
2018-02-08T04:36:11.021Z,28.87
2018-02-08T04:38:50.584Z,30.47
2018-02-08T04:41:29.847Z,28.67
2018-02-08T04:47:18.084Z,32.10
2018-02-08T04:49:45.708Z,39.90
2018-02-08T04:52:13.281Z,34.93
2018-02-08T04:54:41.114Z,34.83
2018-02-08T04:57:08.732Z,33.90
2018-02-08T04:59:36.389Z,33.93
2018-02-08T05:02:04.050Z,36.60
2018-02-08T05:04:31.733Z,38.73
2018-02-08T05:06:59.323Z,38.10
2018-02-08T05:09:26.953Z,36.53
2018-02-08T05:11:54.706Z,29.73
2018-02-08T05:14:22.359Z,33.13
2018-02-08T05:16:49.947Z,31.60
2018-02-08T05:19:17.509Z,32.53
2018-02-08T05:21:45.071Z,31.83
2018-02-08T05:24:12.817Z,31.40
2018-02-08T05:26:40.392Z,33.83
2018-02-08T05:29:07.961Z,31.93
2018-02-08T05:31:35.784Z,32.70
2018-02-08T05:34:03.340Z,33.37
2018-02-08T05:36:30.884Z,35.07
2018-02-08T05:38:58.498Z,34.07
2018-02-08T05:41:26.070Z,34.30
2018-02-08T05:43:53.630Z,34.50
2018-02-08T05:46:21.263Z,35.40
2018-02-08T05:48:48.861Z,34.77
2018-02-08T05:51:16.480Z,44.17
2018-02-08T05:53:44.099Z,34.37
2018-02-08T05:56:11.807Z,38.43
2018-02-08T05:58:39.375Z,32.80
2018-02-08T06:01:06.994Z,30.97
2018-02-08T06:03:34.796Z,34.70
2018-02-08T06:06:02.346Z,32.00
2018-02-08T06:08:30.118Z,33.70
2018-02-08T06:10:57.685Z,40.73
2018-02-08T06:13:25.455Z,29.47
2018-02-08T06:15:53.069Z,36.43
2018-02-08T06:18:20.773Z,29.40
2018-02-08T06:20:48.337Z,28.60
2018-02-08T06:23:16.093Z,31.23
2018-02-08T06:25:43.656Z,27.73
2018-02-08T06:28:11.416Z,31.27
2018-02-08T06:30:39.023Z,28.95
2018-02-08T06:33:06.742Z,31.80
2018-02-08T06:35:34.316Z,29.53
2018-02-08T06:38:01.913Z,27.80
2018-02-08T06:40:29.502Z,24.80
2018-02-08T06:42:57.181Z,25.70
2018-02-08T06:45:24.786Z,26.57
2018-02-08T06:47:52.363Z,23.43
2018-02-08T06:50:19.955Z,29.17
2018-02-08T06:52:47.676Z,27.50
2018-02-08T06:55:15.258Z,29.80
2018-02-08T06:57:42.919Z,26.10
2018-02-08T07:00:10.563Z,25.10
2018-02-08T07:02:38.281Z,26.53
2018-02-08T07:05:05.858Z,29.40
2018-02-08T07:07:33.463Z,20.80
2018-02-08T07:10:01.036Z,19.83
2018-02-08T07:12:28.618Z,22.30
2018-02-08T07:14:56.227Z,21.00
2018-02-08T07:17:23.789Z,18.50
2018-02-08T07:19:51.364Z,20.10
2018-02-08T07:22:18.971Z,20.60
2018-02-08T07:24:46.583Z,17.37
2018-02-08T07:27:14.306Z,17.40
2018-02-08T07:29:41.903Z,20.20
2018-02-08T07:32:09.481Z,20.60
2018-02-08T07:34:37.156Z,20.13
2018-02-08T07:37:05.123Z,20.10
2018-02-08T07:39:32.822Z,16.73
2018-02-08T07:42:00.468Z,17.83
2018-02-08T07:44:28.132Z,19.83
2018-02-08T07:46:55.689Z,15.47
2018-02-08T07:49:23.286Z,13.77
2018-02-08T07:51:50.873Z,15.60
2018-02-08T07:54:18.448Z,15.17
2018-02-08T07:56:46.015Z,17.33
2018-02-08T07:59:13.627Z,17.67
2018-02-08T08:01:41.204Z,22.67
2018-02-08T08:04:08.791Z,18.73
2018-02-08T08:06:36.454Z,18.60
2018-02-08T08:09:04.091Z,20.93
2018-02-08T08:11:31.669Z,18.77
2018-02-08T08:13:59.278Z,17.47
2018-02-08T08:16:26.843Z,16.57
2018-02-08T08:18:54.400Z,16.67
2018-02-08T08:21:22.000Z,17.53
2018-02-08T08:23:49.586Z,16.40
2018-02-08T08:26:17.151Z,18.23
2018-02-08T08:28:44.760Z,17.07
2018-02-08T08:31:12.340Z,18.27
2018-02-08T08:33:39.919Z,16.37
2018-02-08T08:36:07.529Z,16.03
2018-02-08T08:38:35.109Z,15.50
2018-02-08T08:41:02.696Z,15.47
2018-02-08T08:43:30.308Z,16.47
2018-02-08T08:45:57.892Z,15.80
2018-02-08T08:48:25.533Z,16.40
2018-02-08T08:50:53.136Z,17.00
2018-02-08T08:53:20.710Z,16.90
2018-02-08T08:55:48.282Z,14.97
2018-02-08T08:58:15.894Z,14.20
2018-02-08T09:00:43.717Z,17.80
2018-02-08T09:03:11.309Z,14.50
2018-02-08T09:05:39.037Z,13.27
2018-02-08T09:08:06.636Z,13.63
2018-02-08T09:10:34.221Z,13.13
2018-02-08T09:13:01.835Z,12.70
2018-02-08T09:15:29.504Z,13.40
2018-02-08T09:17:57.242Z,12.73
2018-02-08T09:20:24.852Z,12.57
2018-02-08T09:22:52.442Z,10.67
2018-02-08T09:25:20.045Z,14.57
2018-02-08T09:27:47.802Z,11.10
2018-02-08T09:30:15.391Z,11.23
2018-02-08T09:32:43.340Z,12.90
2018-02-08T09:35:10.959Z,11.43
2018-02-08T09:37:38.661Z,11.00
2018-02-08T09:40:06.235Z,12.03
2018-02-08T09:42:33.840Z,13.10
2018-02-08T09:45:01.652Z,12.80
2018-02-08T09:47:29.314Z,12.00
2018-02-08T09:49:56.921Z,10.67
2018-02-08T09:52:24.496Z,11.10
2018-02-08T09:54:52.070Z,9.97
2018-02-08T09:57:19.753Z,11.33
2018-02-08T09:59:47.325Z,11.47
2018-02-08T10:02:14.896Z,10.23
2018-02-08T10:04:42.517Z,10.83
2018-02-08T10:07:10.104Z,10.70
2018-02-08T10:09:37.737Z,11.13
2018-02-08T10:12:05.345Z,10.03
2018-02-08T10:14:32.937Z,10.90
2018-02-08T10:17:00.535Z,9.03
2018-02-08T10:19:28.157Z,10.23
2018-02-08T10:21:55.745Z,10.50
2018-02-08T10:24:23.330Z,11.30
2018-02-08T10:26:50.959Z,12.17
2018-02-08T10:29:18.548Z,12.13
2018-02-08T10:31:46.123Z,11.63
2018-02-08T10:34:13.772Z,9.90
2018-02-08T10:36:41.354Z,9.13
2018-02-08T10:39:08.942Z,10.60
2018-02-08T10:41:36.647Z,11.23
2018-02-08T10:44:04.364Z,10.37
2018-02-08T10:46:31.938Z,11.07
2018-02-08T10:48:59.589Z,9.47
2018-02-08T10:51:27.140Z,8.67
2018-02-08T10:53:54.712Z,9.40
2018-02-08T10:56:22.351Z,9.73
2018-02-08T10:58:49.915Z,10.83
2018-02-08T11:01:17.520Z,10.73
2018-02-08T11:03:45.120Z,10.50
2018-02-08T11:06:12.682Z,10.43
2018-02-08T11:08:40.301Z,10.77
2018-02-08T11:11:07.885Z,13.17
2018-02-08T11:13:35.456Z,12.10
2018-02-08T11:16:03.062Z,13.00
2018-02-08T11:18:30.681Z,13.90
2018-02-08T11:20:58.248Z,16.00
2018-02-08T11:23:25.862Z,22.53
2018-02-08T11:25:53.447Z,17.67
2018-02-08T11:28:21.014Z,18.47
2018-02-08T11:30:48.768Z,20.80
2018-02-08T11:33:16.464Z,12.87
2018-02-08T11:35:44.998Z,14.10
2018-02-08T11:38:12.657Z,11.00
2018-02-08T11:40:40.232Z,9.93
2018-02-08T11:43:07.812Z,11.33
2018-02-08T11:45:35.448Z,10.07
2018-02-08T11:48:03.049Z,13.20
2018-02-08T11:50:30.630Z,12.07
2018-02-08T11:52:58.226Z,11.17
2018-02-08T11:55:25.858Z,10.60
2018-02-08T11:57:53.421Z,11.60
2018-02-08T12:00:21.107Z,11.20
2018-02-08T12:02:48.681Z,11.13
2018-02-08T12:05:16.236Z,12.47
2018-02-08T12:07:43.850Z,10.70
2018-02-08T12:10:11.471Z,10.13
2018-02-08T12:12:39.037Z,11.87
2018-02-08T12:15:06.643Z,10.93
2018-02-08T12:17:34.220Z,11.10
2018-02-08T12:20:01.817Z,9.30
2018-02-08T12:22:29.397Z,9.20
2018-02-08T12:24:56.972Z,10.83
2018-02-08T12:27:24.551Z,11.17
2018-02-08T12:29:52.349Z,10.60
2018-02-08T12:32:19.947Z,10.33
2018-02-08T12:34:47.508Z,10.43
2018-02-08T12:37:15.099Z,9.87
2018-02-08T12:39:42.657Z,11.60
2018-02-08T12:42:10.242Z,11.50
2018-02-08T12:44:37.846Z,11.23
2018-02-08T12:47:05.465Z,12.30
2018-02-08T12:49:33.047Z,10.90
2018-02-08T12:52:00.700Z,12.63
2018-02-08T12:54:28.304Z,10.20
2018-02-08T12:56:55.883Z,9.40
2018-02-08T12:59:23.500Z,9.57
2018-02-08T13:01:51.064Z,12.30
2018-02-08T13:04:18.622Z,11.80
2018-02-08T13:06:46.233Z,11.43
2018-02-08T13:09:13.814Z,12.57
2018-02-08T13:11:41.395Z,12.53
2018-02-08T13:14:09.007Z,12.90
2018-02-08T13:16:36.590Z,13.13
2018-02-08T13:19:04.198Z,11.60
2018-02-08T13:21:31.821Z,13.10
2018-02-08T13:23:59.380Z,13.43
2018-02-08T13:26:26.943Z,11.50
2018-02-08T13:28:54.585Z,10.40
2018-02-08T13:31:22.205Z,12.60
2018-02-08T13:33:49.763Z,13.87
2018-02-08T13:36:17.446Z,12.70
2018-02-08T13:38:45.061Z,12.03
2018-02-08T13:41:12.720Z,15.13
2018-02-08T13:43:40.366Z,12.80
2018-02-08T13:46:07.964Z,17.10
2018-02-08T13:48:36.360Z,15.13
2018-02-08T13:51:09.474Z,15.77
2018-02-08T13:56:43.360Z,17.30
2018-02-08T14:02:15.784Z,15.90
2018-02-08T14:04:43.388Z,17.47
2018-02-08T14:07:10.968Z,17.80
2018-02-08T14:09:38.575Z,17.83
2018-02-08T14:12:06.149Z,17.67
2018-02-08T14:14:33.724Z,17.30
2018-02-08T14:17:01.343Z,19.60
2018-02-08T14:19:28.910Z,19.53
2018-02-08T14:21:56.489Z,20.87
2018-02-08T14:24:24.109Z,19.00
2018-02-08T14:26:51.711Z,18.20
2018-02-08T14:29:19.270Z,19.60
2018-02-08T14:31:46.875Z,19.73
2018-02-08T14:34:14.448Z,21.53
2018-02-08T14:36:42.061Z,22.90
2018-02-08T14:39:09.648Z,26.13
2018-02-08T14:41:37.248Z,27.43
2018-02-08T14:44:04.850Z,27.90
2018-02-08T14:46:32.464Z,29.90
2018-02-08T14:49:00.020Z,26.47
2018-02-08T14:51:27.636Z,33.63
2018-02-08T14:53:55.201Z,29.90
2018-02-08T14:56:22.767Z,28.30
2018-02-08T14:58:50.399Z,35.07
2018-02-08T15:01:17.959Z,28.27
2018-02-08T15:03:45.542Z,30.70
2018-02-08T15:06:13.156Z,28.40
2018-02-08T15:08:40.728Z,33.10
2018-02-08T15:11:08.292Z,36.63
2018-02-08T15:13:35.960Z,34.37
2018-02-08T15:16:03.740Z,39.60
2018-02-08T15:18:31.331Z,44.00
2018-02-08T15:20:58.931Z,31.90
2018-02-08T15:23:26.521Z,30.27
2018-02-08T15:25:54.209Z,33.60
2018-02-08T15:28:21.848Z,39.87
2018-02-08T15:30:49.432Z,43.93
2018-02-08T15:33:16.988Z,57.00
2018-02-08T15:35:44.582Z,41.63
2018-02-08T15:38:12.179Z,34.90
2018-02-08T15:40:39.758Z,44.63
2018-02-08T15:43:07.355Z,48.27
2018-02-08T15:45:34.917Z,54.73
2018-02-08T15:48:02.522Z,49.83
2018-02-08T15:50:30.147Z,66.80
2018-02-08T15:52:57.751Z,55.27
2018-02-08T15:55:25.325Z,43.23
2018-02-08T15:57:52.952Z,56.07
2018-02-08T16:00:20.532Z,56.23
2018-02-08T16:02:48.133Z,54.63
2018-02-08T16:05:15.763Z,55.00
2018-02-08T16:07:43.383Z,55.03
2018-02-08T16:10:10.988Z,58.40
2018-02-08T16:12:38.618Z,84.53
2018-02-08T16:15:06.226Z,81.00
2018-02-08T16:17:33.787Z,67.97
2018-02-08T16:20:01.412Z,79.20
2018-02-08T16:22:28.993Z,64.80
2018-02-08T16:24:56.573Z,56.63
2018-02-08T16:27:24.192Z,50.20
2018-02-08T16:29:51.735Z,45.37
2018-02-08T16:32:19.312Z,63.87
2018-02-08T16:34:46.912Z,49.70
2018-02-08T16:37:14.476Z,43.30
2018-02-08T16:39:42.017Z,46.03
2018-02-08T16:42:09.608Z,71.07
2018-02-08T16:44:37.173Z,45.57
2018-02-08T16:47:04.733Z,40.43
2018-02-08T16:49:32.332Z,38.93
2018-02-08T16:51:59.892Z,38.07
2018-02-08T16:54:27.567Z,43.87
2018-02-08T16:56:55.165Z,45.70
2018-02-08T16:59:22.720Z,43.23
2018-02-08T17:01:50.282Z,38.07
2018-02-08T17:04:17.902Z,32.50
2018-02-08T17:06:45.503Z,32.97
2018-02-08T17:09:13.115Z,35.07
2018-02-08T17:11:40.714Z,35.40
2018-02-08T17:14:08.480Z,32.00
2018-02-08T17:16:36.048Z,35.70
2018-02-08T17:19:03.800Z,34.77
2018-02-08T17:21:31.405Z,36.10
2018-02-08T17:23:58.985Z,34.87
2018-02-08T17:26:26.591Z,44.10
2018-02-08T17:28:54.161Z,33.37
2018-02-08T17:31:21.783Z,35.43
2018-02-08T17:33:49.397Z,36.30
2018-02-08T17:36:16.996Z,34.70
2018-02-08T17:38:44.549Z,35.77
2018-02-08T17:41:12.141Z,34.23
2018-02-08T17:43:39.717Z,39.93
2018-02-08T17:46:07.273Z,51.93
2018-02-08T17:48:34.862Z,51.57
2018-02-08T17:51:02.476Z,95.50
2018-02-08T17:53:30.329Z,95.33
2018-02-08T17:55:58.012Z,92.40
2018-02-08T17:58:25.589Z,81.57
2018-02-08T18:00:53.179Z,46.70
2018-02-08T18:03:20.776Z,53.70
2018-02-08T18:05:48.547Z,73.83
2018-02-08T18:08:16.121Z,58.07
2018-02-08T18:10:43.715Z,50.03
2018-02-08T18:13:11.276Z,56.83
2018-02-08T18:15:38.852Z,51.27
2018-02-08T18:18:06.469Z,49.63
2018-02-08T18:20:34.051Z,50.53
2018-02-08T18:23:01.641Z,68.33
2018-02-08T18:25:29.237Z,49.43
2018-02-08T18:27:56.802Z,56.63
2018-02-08T18:30:24.421Z,83.27
2018-02-08T18:32:52.261Z,60.33
2018-02-08T18:35:19.821Z,67.37
2018-02-08T18:37:47.547Z,61.80
2018-02-08T18:40:15.149Z,71.77
2018-02-08T18:42:42.793Z,64.67
2018-02-08T18:45:10.356Z,77.83
2018-02-08T18:47:37.999Z,95.57
2018-02-08T18:50:05.596Z,70.60
2018-02-08T18:52:33.165Z,68.97
2018-02-08T18:55:00.766Z,60.20
2018-02-08T18:57:28.318Z,49.93
2018-02-08T18:59:55.910Z,52.23
2018-02-08T19:02:23.531Z,52.47
2018-02-08T19:04:51.104Z,59.33
2018-02-08T19:07:18.669Z,67.57
2018-02-08T19:09:46.273Z,54.57
2018-02-08T19:12:13.907Z,51.77
2018-02-08T19:14:41.472Z,56.20
2018-02-08T19:17:09.076Z,44.50
2018-02-08T19:19:36.641Z,47.40
2018-02-08T19:22:04.652Z,44.60
2018-02-08T19:24:32.261Z,40.60
2018-02-08T19:26:59.831Z,42.20
2018-02-08T19:29:27.420Z,45.90
2018-02-08T19:31:55.098Z,59.33
2018-02-08T19:34:22.661Z,53.73
2018-02-08T19:36:50.215Z,56.53
2018-02-08T19:39:17.825Z,51.43
2018-02-08T19:41:45.378Z,43.70
2018-02-08T19:44:12.935Z,44.27
2018-02-08T19:46:40.564Z,59.87
2018-02-08T19:49:08.134Z,45.23
2018-02-08T19:51:35.689Z,42.40
2018-02-08T19:54:03.298Z,39.92
2018-02-08T19:56:30.890Z,38.00
2018-02-08T19:58:58.462Z,53.17
2018-02-08T20:01:26.047Z,50.00
2018-02-08T20:03:53.657Z,54.00
2018-02-08T20:06:21.224Z,55.27
2018-02-08T20:08:48.982Z,45.77
2018-02-08T20:11:16.534Z,52.67
2018-02-08T20:13:44.101Z,59.43
2018-02-08T20:16:11.718Z,63.67
2018-02-08T20:18:39.449Z,61.63
2018-02-08T20:21:07.087Z,61.80
2018-02-08T20:23:34.677Z,86.10
2018-02-08T20:26:02.257Z,54.70
2018-02-08T20:28:29.899Z,51.80
2018-02-08T20:31:02.996Z,49.07
2018-02-08T20:33:30.564Z,37.67
2018-02-08T20:35:58.205Z,35.83
2018-02-08T20:38:25.825Z,36.87
2018-02-08T20:40:53.393Z,39.50
2018-02-08T20:43:26.712Z,38.60
2018-02-08T20:45:54.290Z,46.93
2018-02-08T20:48:21.852Z,35.17
2018-02-08T20:50:49.444Z,37.80
2018-02-08T20:53:17.013Z,36.27
2018-02-08T20:55:44.598Z,31.73
2018-02-08T20:58:12.194Z,32.70
2018-02-08T21:00:40.153Z,39.60
2018-02-08T21:03:07.808Z,38.30
2018-02-08T21:05:35.465Z,35.90
2018-02-08T21:08:03.034Z,34.20
2018-02-08T21:10:30.585Z,35.43
2018-02-08T21:12:58.201Z,38.17
2018-02-08T21:15:25.780Z,38.67
2018-02-08T21:17:53.370Z,41.67
2018-02-08T21:20:20.977Z,38.70
2018-02-08T21:22:48.698Z,44.07
2018-02-08T21:25:16.280Z,38.47
2018-02-08T21:27:43.867Z,42.60
2018-02-08T21:30:11.429Z,36.57
2018-02-08T21:32:39.011Z,37.17
2018-02-08T21:35:06.610Z,38.13
2018-02-08T21:37:34.153Z,35.50
2018-02-08T21:40:01.708Z,38.57
2018-02-08T21:42:29.297Z,37.30
2018-02-08T21:44:56.852Z,37.53
2018-02-08T21:47:24.409Z,36.97
2018-02-08T21:49:52.158Z,32.40
2018-02-08T21:52:19.827Z,33.20
2018-02-08T21:54:47.384Z,32.90
2018-02-08T21:57:15.095Z,33.07
2018-02-08T21:59:42.674Z,33.10
2018-02-08T22:02:10.244Z,29.40
2018-02-08T22:04:37.826Z,48.63
2018-02-08T22:07:05.483Z,40.70
2018-02-08T22:09:33.053Z,34.70
2018-02-08T22:12:00.669Z,33.23
2018-02-08T22:14:28.283Z,29.70
2018-02-08T22:16:55.845Z,34.30
2018-02-08T22:19:23.435Z,35.47
2018-02-08T22:21:51.007Z,33.27
2018-02-08T22:24:18.574Z,33.07
2018-02-08T22:26:46.161Z,34.50
2018-02-08T22:29:13.734Z,29.73
2018-02-08T22:31:41.286Z,34.87
2018-02-08T22:34:08.876Z,36.27
2018-02-08T22:36:36.592Z,37.00
2018-02-08T22:39:04.201Z,42.13
2018-02-08T22:41:31.812Z,38.63
2018-02-08T22:43:59.377Z,44.00
2018-02-08T22:46:26.947Z,38.57
2018-02-08T22:48:54.710Z,41.20
2018-02-08T22:51:22.267Z,40.10
2018-02-08T22:53:50.023Z,37.57
2018-02-08T22:56:17.613Z,38.63
2018-02-08T22:58:45.165Z,35.17
2018-02-08T23:01:12.735Z,37.50
2018-02-08T23:03:40.472Z,37.33
2018-02-08T23:06:08.038Z,37.47
2018-02-08T23:08:35.632Z,36.77
2018-02-08T23:11:03.221Z,39.60
2018-02-08T23:13:30.821Z,31.67
2018-02-08T23:15:58.384Z,32.53
2018-02-08T23:18:26.030Z,34.33
2018-02-08T23:20:53.611Z,34.03
2018-02-08T23:23:21.174Z,31.53
2018-02-08T23:25:48.780Z,34.00
2018-02-08T23:28:16.477Z,33.53
2018-02-08T23:30:44.146Z,32.17
2018-02-08T23:33:11.755Z,34.20
2018-02-08T23:35:39.320Z,34.50
2018-02-08T23:38:06.897Z,28.93
2018-02-08T23:40:34.581Z,33.83
2018-02-08T23:43:02.265Z,31.40
2018-02-08T23:45:29.814Z,30.77
2018-02-08T23:47:57.414Z,28.20
2018-02-08T23:50:24.994Z,30.03
2018-02-08T23:52:52.556Z,30.40
2018-02-08T23:55:20.160Z,27.33
2018-02-08T23:57:47.730Z,28.67
